sensor_id;sensor_type;location;lat;lon;timestamp;temperature;humidity
2611;DHT22;5612;51.134;17.058;2022-11-04T00:00:18;11.50;1.00
2611;DHT22;5612;51.134;17.058;2022-11-04T00:02:52;11.40;1.00
2611;DHT22;5612;51.134;17.058;2022-11-04T00:05:21;11.40;1.00
2611;DHT22;5612;51.134;17.058;2022-11-04T00:07:50;11.40;1.00
2611;DHT22;5612;51.134;17.058;2022-11-04T00:10:46;11.30;64.40
2611;DHT22;5612;51.134;17.058;2022-11-04T00:13:32;11.40;1.00
2611;DHT22;5612;51.134;17.058;2022-11-04T00:16:00;11.40;1.00
2611;DHT22;5612;51.134;17.058;2022-11-04T00:18:46;11.30;41.50
2611;DHT22;5612;51.134;17.058;2022-11-04T00:21:15;11.30;99.90
2611;DHT22;5612;51.134;17.058;2022-11-04T00:24:01;11.30;99.90
2611;DHT22;5612;51.134;17.058;2022-11-04T00:26:49;11.30;99.90
2611;DHT22;5612;51.134;17.058;2022-11-04T00:29:35;11.10;99.90
2611;DHT22;5612;51.134;17.058;2022-11-04T00:32:04;11.10;99.90
2611;DHT22;5612;51.134;17.058;2022-11-04T00:34:50;11.10;1.00
2611;DHT22;5612;51.134;17.058;2022-11-04T00:37:19;11.10;1.00
2611;DHT22;5612;51.134;17.058;2022-11-04T00:39:47;11.00;69.70
2611;DHT22;5612;51.134;17.058;2022-11-04T00:42:17;10.90;99.90
2611;DHT22;5612;51.134;17.058;2022-11-04T00:44:46;10.90;99.90
2611;DHT22;5612;51.134;17.058;2022-11-04T00:47:15;11.00;99.90
2611;DHT22;5612;51.134;17.058;2022-11-04T00:49:43;11.00;99.90
2611;DHT22;5612;51.134;17.058;2022-11-04T00:52:12;11.00;99.90
2611;DHT22;5612;51.134;17.058;2022-11-04T00:54:41;11.00;99.90
2611;DHT22;5612;51.134;17.058;2022-11-04T00:57:09;11.00;99.90
2611;DHT22;5612;51.134;17.058;2022-11-04T00:59:40;11.00;99.90
2611;DHT22;5612;51.134;17.058;2022-11-04T01:02:09;11.10;99.90
2611;DHT22;5612;51.134;17.058;2022-11-04T01:04:38;11.10;99.90
2611;DHT22;5612;51.134;17.058;2022-11-04T01:07:07;11.10;87.30
2611;DHT22;5612;51.134;17.058;2022-11-04T01:09:35;11.20;1.00
2611;DHT22;5612;51.134;17.058;2022-11-04T01:12:04;11.10;99.90
2611;DHT22;5612;51.134;17.058;2022-11-04T01:14:33;11.10;99.90
2611;DHT22;5612;51.134;17.058;2022-11-04T01:17:03;11.10;99.90
2611;DHT22;5612;51.134;17.058;2022-11-04T01:19:32;11.10;99.90
2611;DHT22;5612;51.134;17.058;2022-11-04T01:22:00;11.00;1.00
2611;DHT22;5612;51.134;17.058;2022-11-04T01:24:29;11.00;99.90
2611;DHT22;5612;51.134;17.058;2022-11-04T01:26:58;11.00;1.00
2611;DHT22;5612;51.134;17.058;2022-11-04T01:29:26;11.00;1.00
2611;DHT22;5612;51.134;17.058;2022-11-04T01:31:55;10.90;99.90
2611;DHT22;5612;51.134;17.058;2022-11-04T01:34:25;10.90;1.00
2611;DHT22;5612;51.134;17.058;2022-11-04T01:36:54;10.80;1.00
2611;DHT22;5612;51.134;17.058;2022-11-04T01:39:23;10.80;99.90
2611;DHT22;5612;51.134;17.058;2022-11-04T01:41:52;10.70;99.90
2611;DHT22;5612;51.134;17.058;2022-11-04T01:44:50;10.70;99.90
2611;DHT22;5612;51.134;17.058;2022-11-04T01:47:22;10.80;99.90
2611;DHT22;5612;51.134;17.058;2022-11-04T01:49:56;10.70;1.00
2611;DHT22;5612;51.134;17.058;2022-11-04T01:52:31;10.70;1.00
2611;DHT22;5612;51.134;17.058;2022-11-04T01:55:06;10.60;99.90
2611;DHT22;5612;51.134;17.058;2022-11-04T01:57:40;10.60;99.90
2611;DHT22;5612;51.134;17.058;2022-11-04T02:00:11;10.60;99.90
2611;DHT22;5612;51.134;17.058;2022-11-04T02:02:48;10.70;99.90
2611;DHT22;5612;51.134;17.058;2022-11-04T02:05:19;10.60;99.90
2611;DHT22;5612;51.134;17.058;2022-11-04T02:07:50;10.60;99.90
2611;DHT22;5612;51.134;17.058;2022-11-04T02:10:22;10.60;99.90
2611;DHT22;5612;51.134;17.058;2022-11-04T02:12:52;10.60;99.90
2611;DHT22;5612;51.134;17.058;2022-11-04T02:15:26;10.60;99.90
2611;DHT22;5612;51.134;17.058;2022-11-04T02:18:08;10.70;99.90
2611;DHT22;5612;51.134;17.058;2022-11-04T02:27:08;10.80;99.90
2611;DHT22;5612;51.134;17.058;2022-11-04T02:30:03;10.90;99.90
2611;DHT22;5612;51.134;17.058;2022-11-04T02:32:55;10.80;99.90
2611;DHT22;5612;51.134;17.058;2022-11-04T02:35:34;10.80;99.90
2611;DHT22;5612;51.134;17.058;2022-11-04T02:38:12;10.80;99.90
2611;DHT22;5612;51.134;17.058;2022-11-04T02:40:48;10.80;99.90
2611;DHT22;5612;51.134;17.058;2022-11-04T02:43:24;10.80;99.90
2611;DHT22;5612;51.134;17.058;2022-11-04T02:46:00;10.80;99.90
2611;DHT22;5612;51.134;17.058;2022-11-04T02:48:35;10.80;99.90
2611;DHT22;5612;51.134;17.058;2022-11-04T02:51:09;10.70;99.90
2611;DHT22;5612;51.134;17.058;2022-11-04T02:53:43;10.70;99.90
2611;DHT22;5612;51.134;17.058;2022-11-04T02:56:14;10.90;99.90
2611;DHT22;5612;51.134;17.058;2022-11-04T02:58:46;11.00;19.40
2611;DHT22;5612;51.134;17.058;2022-11-04T03:01:20;11.00;1.00
2611;DHT22;5612;51.134;17.058;2022-11-04T03:03:54;11.00;1.00
2611;DHT22;5612;51.134;17.058;2022-11-04T03:06:25;10.90;47.30
2611;DHT22;5612;51.134;17.058;2022-11-04T03:08:55;10.80;99.90
2611;DHT22;5612;51.134;17.058;2022-11-04T03:11:26;10.90;99.90
2611;DHT22;5612;51.134;17.058;2022-11-04T03:13:58;10.90;99.90
2611;DHT22;5612;51.134;17.058;2022-11-04T03:16:36;11.00;99.90
2611;DHT22;5612;51.134;17.058;2022-11-04T03:19:10;11.00;99.90
2611;DHT22;5612;51.134;17.058;2022-11-04T03:21:44;11.00;99.90
2611;DHT22;5612;51.134;17.058;2022-11-04T03:24:17;11.00;99.90
2611;DHT22;5612;51.134;17.058;2022-11-04T03:26:51;11.00;99.90
2611;DHT22;5612;51.134;17.058;2022-11-04T03:29:26;11.00;99.90
2611;DHT22;5612;51.134;17.058;2022-11-04T03:32:05;11.10;99.90
2611;DHT22;5612;51.134;17.058;2022-11-04T03:34:39;11.10;20.50
2611;DHT22;5612;51.134;17.058;2022-11-04T03:37:08;11.10;1.00
2611;DHT22;5612;51.134;17.058;2022-11-04T03:39:37;11.10;1.00
2611;DHT22;5612;51.134;17.058;2022-11-04T03:42:09;11.20;1.00
2611;DHT22;5612;51.134;17.058;2022-11-04T03:44:49;11.20;1.00
2611;DHT22;5612;51.134;17.058;2022-11-04T03:47:21;11.30;1.00
2611;DHT22;5612;51.134;17.058;2022-11-04T03:49:52;11.30;1.00
2611;DHT22;5612;51.134;17.058;2022-11-04T03:52:23;11.20;1.00
2611;DHT22;5612;51.134;17.058;2022-11-04T03:54:52;11.30;99.90
2611;DHT22;5612;51.134;17.058;2022-11-04T03:57:36;11.20;99.90
2611;DHT22;5612;51.134;17.058;2022-11-04T04:00:10;11.30;99.90
2611;DHT22;5612;51.134;17.058;2022-11-04T04:02:52;11.20;1.00
2611;DHT22;5612;51.134;17.058;2022-11-04T04:05:26;11.20;1.00
2611;DHT22;5612;51.134;17.058;2022-11-04T04:08:08;11.20;1.00
2611;DHT22;5612;51.134;17.058;2022-11-04T04:10:42;11.20;99.90
2611;DHT22;5612;51.134;17.058;2022-11-04T04:13:24;11.20;1.00
2611;DHT22;5612;51.134;17.058;2022-11-04T04:16:00;11.10;1.00
2611;DHT22;5612;51.134;17.058;2022-11-04T04:18:37;11.10;1.00
2611;DHT22;5612;51.134;17.058;2022-11-04T04:21:10;11.10;1.00
2611;DHT22;5612;51.134;17.058;2022-11-04T04:23:43;11.10;99.90
2611;DHT22;5612;51.134;17.058;2022-11-04T04:26:32;11.10;1.00
2611;DHT22;5612;51.134;17.058;2022-11-04T04:29:25;10.90;99.90
2611;DHT22;5612;51.134;17.058;2022-11-04T04:31:56;10.80;99.90
2611;DHT22;5612;51.134;17.058;2022-11-04T04:34:30;10.80;99.90
2611;DHT22;5612;51.134;17.058;2022-11-04T04:37:01;10.80;1.00
2611;DHT22;5612;51.134;17.058;2022-11-04T04:39:37;10.80;1.00
2611;DHT22;5612;51.134;17.058;2022-11-04T04:42:25;10.80;1.00
2611;DHT22;5612;51.134;17.058;2022-11-04T04:45:20;10.80;1.00
2611;DHT22;5612;51.134;17.058;2022-11-04T04:47:50;10.80;1.00
2611;DHT22;5612;51.134;17.058;2022-11-04T04:50:21;10.80;1.00
2611;DHT22;5612;51.134;17.058;2022-11-04T04:52:51;10.80;1.00
2611;DHT22;5612;51.134;17.058;2022-11-04T04:55:20;10.90;1.00
2611;DHT22;5612;51.134;17.058;2022-11-04T04:57:49;10.90;1.00
2611;DHT22;5612;51.134;17.058;2022-11-04T05:00:19;10.90;1.00
2611;DHT22;5612;51.134;17.058;2022-11-04T05:02:48;10.90;1.00
2611;DHT22;5612;51.134;17.058;2022-11-04T05:05:18;11.00;1.00
2611;DHT22;5612;51.134;17.058;2022-11-04T05:07:48;11.00;1.00
2611;DHT22;5612;51.134;17.058;2022-11-04T05:10:17;10.90;1.00
2611;DHT22;5612;51.134;17.058;2022-11-04T05:12:45;10.90;1.00
2611;DHT22;5612;51.134;17.058;2022-11-04T05:15:33;10.90;1.00
2611;DHT22;5612;51.134;17.058;2022-11-04T05:18:02;10.90;1.00
2611;DHT22;5612;51.134;17.058;2022-11-04T05:20:31;10.90;1.00
2611;DHT22;5612;51.134;17.058;2022-11-04T05:23:01;10.80;1.00
2611;DHT22;5612;51.134;17.058;2022-11-04T05:25:30;10.90;1.00
2611;DHT22;5612;51.134;17.058;2022-11-04T05:27:59;10.90;1.00
2611;DHT22;5612;51.134;17.058;2022-11-04T05:30:29;10.90;1.00
2611;DHT22;5612;51.134;17.058;2022-11-04T05:32:57;10.90;1.00
2611;DHT22;5612;51.134;17.058;2022-11-04T05:35:31;10.80;1.00
2611;DHT22;5612;51.134;17.058;2022-11-04T05:38:02;10.80;1.00
2611;DHT22;5612;51.134;17.058;2022-11-04T05:40:30;10.80;1.00
2611;DHT22;5612;51.134;17.058;2022-11-04T05:42:59;10.80;1.00
2611;DHT22;5612;51.134;17.058;2022-11-04T05:45:28;10.80;1.00
2611;DHT22;5612;51.134;17.058;2022-11-04T05:47:58;10.70;1.00
2611;DHT22;5612;51.134;17.058;2022-11-04T05:50:27;10.70;1.00
2611;DHT22;5612;51.134;17.058;2022-11-04T05:52:56;10.70;1.00
2611;DHT22;5612;51.134;17.058;2022-11-04T05:55:27;10.70;1.00
2611;DHT22;5612;51.134;17.058;2022-11-04T05:57:55;10.70;1.00
2611;DHT22;5612;51.134;17.058;2022-11-04T06:00:26;10.70;1.00
2611;DHT22;5612;51.134;17.058;2022-11-04T06:02:55;10.80;1.00
2611;DHT22;5612;51.134;17.058;2022-11-04T06:05:25;10.80;1.00
2611;DHT22;5612;51.134;17.058;2022-11-04T06:07:54;10.80;1.00
2611;DHT22;5612;51.134;17.058;2022-11-04T06:10:24;10.80;1.00
2611;DHT22;5612;51.134;17.058;2022-11-04T06:12:54;10.90;1.00
2611;DHT22;5612;51.134;17.058;2022-11-04T06:15:23;11.00;1.00
2611;DHT22;5612;51.134;17.058;2022-11-04T06:17:51;11.00;1.00
2611;DHT22;5612;51.134;17.058;2022-11-04T06:20:20;11.10;1.00
2611;DHT22;5612;51.134;17.058;2022-11-04T06:22:49;11.20;1.00
2611;DHT22;5612;51.134;17.058;2022-11-04T06:25:17;11.30;1.00
2611;DHT22;5612;51.134;17.058;2022-11-04T06:27:46;11.30;1.00
2611;DHT22;5612;51.134;17.058;2022-11-04T06:30:16;11.30;1.00
2611;DHT22;5612;51.134;17.058;2022-11-04T06:32:49;11.40;1.00
2611;DHT22;5612;51.134;17.058;2022-11-04T06:35:18;11.50;1.00
2611;DHT22;5612;51.134;17.058;2022-11-04T06:37:46;11.50;1.00
2611;DHT22;5612;51.134;17.058;2022-11-04T06:40:15;11.50;1.00
2611;DHT22;5612;51.134;17.058;2022-11-04T06:42:44;11.60;1.00
2611;DHT22;5612;51.134;17.058;2022-11-04T06:45:12;11.60;1.00
2611;DHT22;5612;51.134;17.058;2022-11-04T06:47:43;11.70;1.00
2611;DHT22;5612;51.134;17.058;2022-11-04T06:50:13;11.80;99.90
2611;DHT22;5612;51.134;17.058;2022-11-04T06:52:42;11.90;99.90
2611;DHT22;5612;51.134;17.058;2022-11-04T06:55:11;12.00;99.90
2611;DHT22;5612;51.134;17.058;2022-11-04T06:57:40;12.20;1.00
2611;DHT22;5612;51.134;17.058;2022-11-04T07:00:10;12.40;1.00
2611;DHT22;5612;51.134;17.058;2022-11-04T07:02:39;12.60;1.00
2611;DHT22;5612;51.134;17.058;2022-11-04T07:05:10;12.90;1.00
2611;DHT22;5612;51.134;17.058;2022-11-04T07:07:39;13.00;1.00
2611;DHT22;5612;51.134;17.058;2022-11-04T07:10:09;13.00;1.00
2611;DHT22;5612;51.134;17.058;2022-11-04T07:12:38;13.10;1.00
2611;DHT22;5612;51.134;17.058;2022-11-04T07:15:07;13.20;99.90
2611;DHT22;5612;51.134;17.058;2022-11-04T07:17:36;13.20;92.40
2611;DHT22;5612;51.134;17.058;2022-11-04T07:20:05;13.40;52.40
2611;DHT22;5612;51.134;17.058;2022-11-04T07:22:36;13.40;53.20
2611;DHT22;5612;51.134;17.058;2022-11-04T07:25:05;13.40;1.00
2611;DHT22;5612;51.134;17.058;2022-11-04T07:27:34;13.30;1.00
2611;DHT22;5612;51.134;17.058;2022-11-04T07:30:03;13.30;1.00
2611;DHT22;5612;51.134;17.058;2022-11-04T07:32:33;13.10;1.00
2611;DHT22;5612;51.134;17.058;2022-11-04T07:35:01;13.00;99.90
2611;DHT22;5612;51.134;17.058;2022-11-04T07:37:30;13.10;99.90
2611;DHT22;5612;51.134;17.058;2022-11-04T07:40:00;13.20;99.90
2611;DHT22;5612;51.134;17.058;2022-11-04T07:42:29;13.20;99.90
2611;DHT22;5612;51.134;17.058;2022-11-04T07:44:58;13.20;99.90
2611;DHT22;5612;51.134;17.058;2022-11-04T07:47:28;13.20;99.90
2611;DHT22;5612;51.134;17.058;2022-11-04T07:49:57;13.30;37.00
2611;DHT22;5612;51.134;17.058;2022-11-04T07:52:26;13.20;99.90
2611;DHT22;5612;51.134;17.058;2022-11-04T07:54:54;13.20;99.90
2611;DHT22;5612;51.134;17.058;2022-11-04T07:57:25;13.20;99.90
2611;DHT22;5612;51.134;17.058;2022-11-04T07:59:54;13.30;99.90
2611;DHT22;5612;51.134;17.058;2022-11-04T08:02:22;13.40;59.60
2611;DHT22;5612;51.134;17.058;2022-11-04T08:04:58;13.50;1.00
2611;DHT22;5612;51.134;17.058;2022-11-04T08:07:26;13.40;99.90
2611;DHT22;5612;51.134;17.058;2022-11-04T08:09:55;13.60;1.00
2611;DHT22;5612;51.134;17.058;2022-11-04T08:12:27;13.70;1.00
2611;DHT22;5612;51.134;17.058;2022-11-04T08:14:58;13.70;1.00
2611;DHT22;5612;51.134;17.058;2022-11-04T08:17:28;13.70;1.00
2611;DHT22;5612;51.134;17.058;2022-11-04T08:19:57;13.50;1.00
2611;DHT22;5612;51.134;17.058;2022-11-04T08:22:26;13.40;99.90
2611;DHT22;5612;51.134;17.058;2022-11-04T08:24:59;13.30;99.90
2611;DHT22;5612;51.134;17.058;2022-11-04T08:27:30;13.30;99.90
2611;DHT22;5612;51.134;17.058;2022-11-04T08:30:00;13.20;99.90
2611;DHT22;5612;51.134;17.058;2022-11-04T08:32:30;13.20;99.90
2611;DHT22;5612;51.134;17.058;2022-11-04T08:34:59;13.20;99.90
2611;DHT22;5612;51.134;17.058;2022-11-04T08:37:28;13.10;1.00
2611;DHT22;5612;51.134;17.058;2022-11-04T08:39:57;13.10;1.00
2611;DHT22;5612;51.134;17.058;2022-11-04T08:42:26;13.30;1.00
2611;DHT22;5612;51.134;17.058;2022-11-04T08:44:56;13.40;99.90
2611;DHT22;5612;51.134;17.058;2022-11-04T08:47:25;13.50;99.90
2611;DHT22;5612;51.134;17.058;2022-11-04T08:49:54;13.60;99.90
2611;DHT22;5612;51.134;17.058;2022-11-04T08:52:23;13.80;39.70
2611;DHT22;5612;51.134;17.058;2022-11-04T08:54:53;14.00;1.00
2611;DHT22;5612;51.134;17.058;2022-11-04T08:57:24;14.30;1.00
2611;DHT22;5612;51.134;17.058;2022-11-04T08:59:55;14.60;99.90
2611;DHT22;5612;51.134;17.058;2022-11-04T09:02:25;14.80;99.90
2611;DHT22;5612;51.134;17.058;2022-11-04T09:04:55;15.00;99.90
2611;DHT22;5612;51.134;17.058;2022-11-04T09:07:24;15.00;99.90
2611;DHT22;5612;51.134;17.058;2022-11-04T09:09:53;15.10;99.90
2611;DHT22;5612;51.134;17.058;2022-11-04T09:12:22;15.20;99.90
2611;DHT22;5612;51.134;17.058;2022-11-04T09:14:52;15.20;99.90
2611;DHT22;5612;51.134;17.058;2022-11-04T09:17:27;15.20;99.90
2611;DHT22;5612;51.134;17.058;2022-11-04T09:19:57;15.60;99.90
2611;DHT22;5612;51.134;17.058;2022-11-04T09:22:26;16.10;99.90
2611;DHT22;5612;51.134;17.058;2022-11-04T09:24:55;16.80;52.00
2611;DHT22;5612;51.134;17.058;2022-11-04T09:27:23;17.30;1.00
2611;DHT22;5612;51.134;17.058;2022-11-04T09:29:52;18.00;1.00
2611;DHT22;5612;51.134;17.058;2022-11-04T09:32:20;18.70;1.00
2611;DHT22;5612;51.134;17.058;2022-11-04T09:34:51;19.10;1.00
2611;DHT22;5612;51.134;17.058;2022-11-04T09:37:21;19.50;1.00
2611;DHT22;5612;51.134;17.058;2022-11-04T09:39:51;19.20;1.00
2611;DHT22;5612;51.134;17.058;2022-11-04T09:42:47;19.00;1.00
2611;DHT22;5612;51.134;17.058;2022-11-04T09:45:24;18.60;1.00
2611;DHT22;5612;51.134;17.058;2022-11-04T09:47:57;18.20;1.00
2611;DHT22;5612;51.134;17.058;2022-11-04T09:50:44;17.80;1.00
2611;DHT22;5612;51.134;17.058;2022-11-04T09:53:17;17.30;1.00
2611;DHT22;5612;51.134;17.058;2022-11-04T09:55:51;17.20;1.00
2611;DHT22;5612;51.134;17.058;2022-11-04T09:58:22;17.00;1.00
2611;DHT22;5612;51.134;17.058;2022-11-04T10:00:56;17.00;1.00
2611;DHT22;5612;51.134;17.058;2022-11-04T10:03:38;16.80;1.00
2611;DHT22;5612;51.134;17.058;2022-11-04T10:06:25;16.60;1.00
2611;DHT22;5612;51.134;17.058;2022-11-04T10:09:16;16.40;1.00
2611;DHT22;5612;51.134;17.058;2022-11-04T10:11:58;16.30;1.00
2611;DHT22;5612;51.134;17.058;2022-11-04T10:14:49;16.10;26.90
2611;DHT22;5612;51.134;17.058;2022-11-04T10:17:39;16.00;44.40
2611;DHT22;5612;51.134;17.058;2022-11-04T10:20:19;15.90;59.80
2611;DHT22;5612;51.134;17.058;2022-11-04T10:22:59;15.80;94.10
2611;DHT22;5612;51.134;17.058;2022-11-04T10:25:35;15.90;64.40
2611;DHT22;5612;51.134;17.058;2022-11-04T10:28:11;15.90;79.00
2611;DHT22;5612;51.134;17.058;2022-11-04T10:30:43;15.80;99.90
2611;DHT22;5612;51.134;17.058;2022-11-04T10:33:17;15.70;99.90
2611;DHT22;5612;51.134;17.058;2022-11-04T10:35:51;15.60;99.90
2611;DHT22;5612;51.134;17.058;2022-11-04T10:38:31;15.60;99.90
2611;DHT22;5612;51.134;17.058;2022-11-04T10:41:01;15.50;99.90
2611;DHT22;5612;51.134;17.058;2022-11-04T10:43:35;15.40;99.90
2611;DHT22;5612;51.134;17.058;2022-11-04T10:49:23;15.00;99.90
2611;DHT22;5612;51.134;17.058;2022-11-04T10:51:55;14.90;99.90
2611;DHT22;5612;51.134;17.058;2022-11-04T10:54:26;14.80;99.90
2611;DHT22;5612;51.134;17.058;2022-11-04T10:56:55;14.70;99.90
2611;DHT22;5612;51.134;17.058;2022-11-04T10:59:27;14.70;99.90
2611;DHT22;5612;51.134;17.058;2022-11-04T11:01:58;14.80;99.90
2611;DHT22;5612;51.134;17.058;2022-11-04T11:04:29;14.90;99.90
2611;DHT22;5612;51.134;17.058;2022-11-04T11:07:01;15.00;99.90
2611;DHT22;5612;51.134;17.058;2022-11-04T11:09:35;15.10;99.90
2611;DHT22;5612;51.134;17.058;2022-11-04T11:12:18;15.20;99.90
2611;DHT22;5612;51.134;17.058;2022-11-04T11:15:26;15.20;99.90
2611;DHT22;5612;51.134;17.058;2022-11-04T11:18:14;15.20;99.90
2611;DHT22;5612;51.134;17.058;2022-11-04T11:20:49;15.20;99.90
2611;DHT22;5612;51.134;17.058;2022-11-04T11:23:39;15.40;99.90
2611;DHT22;5612;51.134;17.058;2022-11-04T11:26:13;15.90;99.90
2611;DHT22;5612;51.134;17.058;2022-11-04T11:28:48;16.50;97.80
2611;DHT22;5612;51.134;17.058;2022-11-04T11:31:25;17.00;18.50
2611;DHT22;5612;51.134;17.058;2022-11-04T11:33:55;17.60;1.00
2611;DHT22;5612;51.134;17.058;2022-11-04T11:36:26;17.70;1.00
2611;DHT22;5612;51.134;17.058;2022-11-04T11:39:01;17.90;1.00
2611;DHT22;5612;51.134;17.058;2022-11-04T11:41:34;18.00;1.00
2611;DHT22;5612;51.134;17.058;2022-11-04T11:44:24;18.40;1.00
2611;DHT22;5612;51.134;17.058;2022-11-04T11:46:56;18.20;1.00
2611;DHT22;5612;51.134;17.058;2022-11-04T11:49:29;18.10;1.00
2611;DHT22;5612;51.134;17.058;2022-11-04T11:55:06;17.30;1.00
2611;DHT22;5612;51.134;17.058;2022-11-04T11:57:46;17.20;1.00
2611;DHT22;5612;51.134;17.058;2022-11-04T12:00:41;17.00;1.00
2611;DHT22;5612;51.134;17.058;2022-11-04T12:03:22;16.80;1.00
2611;DHT22;5612;51.134;17.058;2022-11-04T12:06:28;16.70;1.00
2611;DHT22;5612;51.134;17.058;2022-11-04T12:09:28;16.70;1.00
2611;DHT22;5612;51.134;17.058;2022-11-04T12:15:22;16.80;1.00
2611;DHT22;5612;51.134;17.058;2022-11-04T12:18:07;17.00;1.00
2611;DHT22;5612;51.134;17.058;2022-11-04T12:20:49;16.80;1.00
2611;DHT22;5612;51.134;17.058;2022-11-04T12:23:25;16.80;1.00
2611;DHT22;5612;51.134;17.058;2022-11-04T12:26:05;16.50;1.00
2611;DHT22;5612;51.134;17.058;2022-11-04T12:28:52;16.40;5.10
2611;DHT22;5612;51.134;17.058;2022-11-04T12:31:37;16.40;2.60
2611;DHT22;5612;51.134;17.058;2022-11-04T12:34:16;16.40;3.30
2611;DHT22;5612;51.134;17.058;2022-11-04T12:37:05;16.50;5.70
2611;DHT22;5612;51.134;17.058;2022-11-04T12:39:53;16.50;3.30
2611;DHT22;5612;51.134;17.058;2022-11-04T12:42:26;16.50;14.30
2611;DHT22;5612;51.134;17.058;2022-11-04T12:45:08;16.50;19.20
2611;DHT22;5612;51.134;17.058;2022-11-04T12:47:43;16.50;9.50
2611;DHT22;5612;51.134;17.058;2022-11-04T12:50:40;16.30;20.80
2611;DHT22;5612;51.134;17.058;2022-11-04T12:53:26;16.30;26.30
2611;DHT22;5612;51.134;17.058;2022-11-04T12:56:03;16.40;20.50
2611;DHT22;5612;51.134;17.058;2022-11-04T12:58:49;16.40;23.10
2611;DHT22;5612;51.134;17.058;2022-11-04T13:01:29;16.30;28.40
2611;DHT22;5612;51.134;17.058;2022-11-04T13:04:05;16.20;29.40
2611;DHT22;5612;51.134;17.058;2022-11-04T13:06:37;16.30;19.60
2611;DHT22;5612;51.134;17.058;2022-11-04T13:09:13;16.30;21.50
2611;DHT22;5612;51.134;17.058;2022-11-04T13:11:48;16.10;40.30
2611;DHT22;5612;51.134;17.058;2022-11-04T13:14:22;16.20;51.20
2611;DHT22;5612;51.134;17.058;2022-11-04T13:16:59;16.20;54.90
2611;DHT22;5612;51.134;17.058;2022-11-04T13:19:36;16.20;57.50
2611;DHT22;5612;51.134;17.058;2022-11-04T13:22:17;16.20;42.70
2611;DHT22;5612;51.134;17.058;2022-11-04T13:24:50;16.20;45.40
2611;DHT22;5612;51.134;17.058;2022-11-04T13:27:22;16.10;44.80
2611;DHT22;5612;51.134;17.058;2022-11-04T13:30:03;15.90;95.20
2611;DHT22;5612;51.134;17.058;2022-11-04T13:32:46;15.90;99.90
2611;DHT22;5612;51.134;17.058;2022-11-04T13:35:25;15.80;99.90
2611;DHT22;5612;51.134;17.058;2022-11-04T13:38:01;15.70;99.90
2611;DHT22;5612;51.134;17.058;2022-11-04T13:40:38;15.70;99.90
2611;DHT22;5612;51.134;17.058;2022-11-04T13:43:19;15.70;99.90
2611;DHT22;5612;51.134;17.058;2022-11-04T13:46:24;15.90;99.90
2611;DHT22;5612;51.134;17.058;2022-11-04T13:49:03;15.90;99.90
2611;DHT22;5612;51.134;17.058;2022-11-04T13:51:38;15.90;99.90
2611;DHT22;5612;51.134;17.058;2022-11-04T13:54:24;15.90;99.90
2611;DHT22;5612;51.134;17.058;2022-11-04T13:57:10;15.90;99.90
2611;DHT22;5612;51.134;17.058;2022-11-04T13:59:41;15.90;99.90
2611;DHT22;5612;51.134;17.058;2022-11-04T14:02:34;15.90;99.90
2611;DHT22;5612;51.134;17.058;2022-11-04T14:08:16;16.00;99.90
2611;DHT22;5612;51.134;17.058;2022-11-04T14:11:08;16.00;99.90
2611;DHT22;5612;51.134;17.058;2022-11-04T14:14:15;16.00;99.90
2611;DHT22;5612;51.134;17.058;2022-11-04T14:16:46;16.00;99.90
2611;DHT22;5612;51.134;17.058;2022-11-04T14:22:31;15.90;99.90
2611;DHT22;5612;51.134;17.058;2022-11-04T14:25:18;15.90;99.90
2611;DHT22;5612;51.134;17.058;2022-11-04T14:27:50;15.80;99.90
2611;DHT22;5612;51.134;17.058;2022-11-04T14:30:28;15.80;99.90
2611;DHT22;5612;51.134;17.058;2022-11-04T14:33:00;15.80;99.90
2611;DHT22;5612;51.134;17.058;2022-11-04T14:35:30;15.70;99.90
2611;DHT22;5612;51.134;17.058;2022-11-04T14:38:16;15.70;99.90
2611;DHT22;5612;51.134;17.058;2022-11-04T14:40:52;15.70;99.90
2611;DHT22;5612;51.134;17.058;2022-11-04T14:43:41;15.70;99.90
2611;DHT22;5612;51.134;17.058;2022-11-04T14:46:11;15.70;99.90
2611;DHT22;5612;51.134;17.058;2022-11-04T14:48:47;15.70;99.90
2611;DHT22;5612;51.134;17.058;2022-11-04T14:51:21;15.70;99.90
2611;DHT22;5612;51.134;17.058;2022-11-04T14:53:54;15.60;99.90
2611;DHT22;5612;51.134;17.058;2022-11-04T14:56:25;15.60;99.90
2611;DHT22;5612;51.134;17.058;2022-11-04T14:58:55;15.60;99.90
2611;DHT22;5612;51.134;17.058;2022-11-04T15:01:25;15.40;99.90
2611;DHT22;5612;51.134;17.058;2022-11-04T15:04:05;15.40;99.90
2611;DHT22;5612;51.134;17.058;2022-11-04T15:06:39;15.40;99.90
2611;DHT22;5612;51.134;17.058;2022-11-04T15:09:23;15.30;99.90
2611;DHT22;5612;51.134;17.058;2022-11-04T15:12:02;15.30;99.90
2611;DHT22;5612;51.134;17.058;2022-11-04T15:14:56;15.30;99.90
2611;DHT22;5612;51.134;17.058;2022-11-04T15:17:28;15.30;99.90
2611;DHT22;5612;51.134;17.058;2022-11-04T15:19:59;15.20;99.90
2611;DHT22;5612;51.134;17.058;2022-11-04T15:22:30;15.20;99.90
2611;DHT22;5612;51.134;17.058;2022-11-04T15:25:02;15.20;99.90
2611;DHT22;5612;51.134;17.058;2022-11-04T15:27:33;15.10;99.90
2611;DHT22;5612;51.134;17.058;2022-11-04T15:30:17;15.10;1.00
2611;DHT22;5612;51.134;17.058;2022-11-04T15:32:54;15.00;1.00
2611;DHT22;5612;51.134;17.058;2022-11-04T15:35:24;15.00;1.00
2611;DHT22;5612;51.134;17.058;2022-11-04T15:37:54;15.00;99.90
2611;DHT22;5612;51.134;17.058;2022-11-04T15:40:24;14.90;99.90
2611;DHT22;5612;51.134;17.058;2022-11-04T15:42:57;14.90;1.00
2611;DHT22;5612;51.134;17.058;2022-11-04T15:45:29;14.90;1.00
2611;DHT22;5612;51.134;17.058;2022-11-04T15:48:20;14.90;1.00
2611;DHT22;5612;51.134;17.058;2022-11-04T15:50:52;14.80;1.00
2611;DHT22;5612;51.134;17.058;2022-11-04T15:53:23;14.80;1.00
2611;DHT22;5612;51.134;17.058;2022-11-04T15:55:51;14.70;1.00
2611;DHT22;5612;51.134;17.058;2022-11-04T15:58:23;14.70;39.40
2611;DHT22;5612;51.134;17.058;2022-11-04T16:00:53;14.60;99.90
2611;DHT22;5612;51.134;17.058;2022-11-04T16:03:23;14.60;99.90
2611;DHT22;5612;51.134;17.058;2022-11-04T16:06:03;14.50;99.90
2611;DHT22;5612;51.134;17.058;2022-11-04T16:08:32;14.50;1.00
2611;DHT22;5612;51.134;17.058;2022-11-04T16:11:09;14.50;1.00
2611;DHT22;5612;51.134;17.058;2022-11-04T16:13:41;14.50;99.90
2611;DHT22;5612;51.134;17.058;2022-11-04T16:16:19;14.40;99.90
2611;DHT22;5612;51.134;17.058;2022-11-04T16:18:51;14.40;99.90
2611;DHT22;5612;51.134;17.058;2022-11-04T16:21:24;14.40;99.90
2611;DHT22;5612;51.134;17.058;2022-11-04T16:23:57;14.40;1.00
2611;DHT22;5612;51.134;17.058;2022-11-04T16:26:30;14.40;1.00
2611;DHT22;5612;51.134;17.058;2022-11-04T16:29:08;14.40;1.00
2611;DHT22;5612;51.134;17.058;2022-11-04T16:31:37;14.30;99.90
2611;DHT22;5612;51.134;17.058;2022-11-04T16:34:09;14.30;99.90
2611;DHT22;5612;51.134;17.058;2022-11-04T16:36:39;14.20;99.90
2611;DHT22;5612;51.134;17.058;2022-11-04T16:39:08;14.20;1.00
2611;DHT22;5612;51.134;17.058;2022-11-04T16:41:38;14.20;99.90
2611;DHT22;5612;51.134;17.058;2022-11-04T16:44:20;14.00;99.90
2611;DHT22;5612;51.134;17.058;2022-11-04T16:46:50;14.10;1.00
2611;DHT22;5612;51.134;17.058;2022-11-04T16:49:20;14.00;1.00
2611;DHT22;5612;51.134;17.058;2022-11-04T16:51:53;14.10;1.20
2611;DHT22;5612;51.134;17.058;2022-11-04T16:54:22;14.10;1.00
2611;DHT22;5612;51.134;17.058;2022-11-04T16:56:52;14.00;99.90
2611;DHT22;5612;51.134;17.058;2022-11-04T16:59:22;14.00;99.90